sensor_id;sensor_type;location;lat;lon;timestamp;P1;durP1;ratioP1;P2;durP2;ratioP2
39864;SDS011;25538;48.392;9.976;2022-10-26T00:00:03;9.80;;;7.40;;
39864;SDS011;25538;48.392;9.976;2022-10-26T00:02:29;8.98;;;7.00;;
39864;SDS011;25538;48.392;9.976;2022-10-26T00:04:55;8.97;;;8.07;;
39864;SDS011;25538;48.392;9.976;2022-10-26T00:07:21;10.87;;;7.10;;
39864;SDS011;25538;48.392;9.976;2022-10-26T00:09:47;10.00;;;6.73;;
39864;SDS011;25538;48.392;9.976;2022-10-26T00:12:13;8.77;;;7.87;;
39864;SDS011;25538;48.392;9.976;2022-10-26T00:14:39;9.40;;;6.70;;
39864;SDS011;25538;48.392;9.976;2022-10-26T00:17:05;9.33;;;6.60;;
39864;SDS011;25538;48.392;9.976;2022-10-26T00:19:32;13.32;;;6.45;;
39864;SDS011;25538;48.392;9.976;2022-10-26T00:21:58;8.77;;;6.63;;
39864;SDS011;25538;48.392;9.976;2022-10-26T00:24:24;6.20;;;5.60;;
39864;SDS011;25538;48.392;9.976;2022-10-26T00:26:50;6.80;;;5.97;;
39864;SDS011;25538;48.392;9.976;2022-10-26T00:29:16;7.43;;;6.03;;
39864;SDS011;25538;48.392;9.976;2022-10-26T00:31:42;7.47;;;6.78;;
39864;SDS011;25538;48.392;9.976;2022-10-26T00:34:09;8.80;;;5.53;;
39864;SDS011;25538;48.392;9.976;2022-10-26T00:36:36;7.70;;;6.78;;
39864;SDS011;25538;48.392;9.976;2022-10-26T00:39:02;6.95;;;6.32;;
39864;SDS011;25538;48.392;9.976;2022-10-26T00:41:30;7.97;;;5.68;;
39864;SDS011;25538;48.392;9.976;2022-10-26T00:43:57;7.10;;;6.45;;
39864;SDS011;25538;48.392;9.976;2022-10-26T00:46:34;6.68;;;5.90;;
39864;SDS011;25538;48.392;9.976;2022-10-26T00:49:12;7.40;;;5.07;;
39864;SDS011;25538;48.392;9.976;2022-10-26T00:51:45;7.93;;;5.85;;
39864;SDS011;25538;48.392;9.976;2022-10-26T00:54:15;5.90;;;5.40;;
39864;SDS011;25538;48.392;9.976;2022-10-26T00:56:43;6.35;;;5.05;;
39864;SDS011;25538;48.392;9.976;2022-10-26T00:59:11;6.38;;;5.72;;
39864;SDS011;25538;48.392;9.976;2022-10-26T01:01:40;5.75;;;5.13;;
39864;SDS011;25538;48.392;9.976;2022-10-26T01:04:09;8.55;;;5.20;;
39864;SDS011;25538;48.392;9.976;2022-10-26T01:06:36;6.63;;;4.30;;
39864;SDS011;25538;48.392;9.976;2022-10-26T01:09:03;6.40;;;4.97;;
39864;SDS011;25538;48.392;9.976;2022-10-26T01:11:30;9.80;;;5.93;;
39864;SDS011;25538;48.392;9.976;2022-10-26T01:13:56;8.70;;;5.60;;
39864;SDS011;25538;48.392;9.976;2022-10-26T01:22:19;10.07;;;6.35;;
39864;SDS011;25538;48.392;9.976;2022-10-26T01:27:34;7.65;;;5.97;;
39864;SDS011;25538;48.392;9.976;2022-10-26T01:35:31;9.90;;;6.30;;
39864;SDS011;25538;48.392;9.976;2022-10-26T01:46:32;8.43;;;6.65;;
39864;SDS011;25538;48.392;9.976;2022-10-26T01:49:06;8.60;;;7.55;;
39864;SDS011;25538;48.392;9.976;2022-10-26T01:51:37;6.80;;;6.10;;
39864;SDS011;25538;48.392;9.976;2022-10-26T01:54:05;7.68;;;6.90;;
39864;SDS011;25538;48.392;9.976;2022-10-26T01:56:33;7.90;;;7.07;;
39864;SDS011;25538;48.392;9.976;2022-10-26T02:10:26;10.15;;;6.60;;
39864;SDS011;25538;48.392;9.976;2022-10-26T02:15:48;9.18;;;6.15;;
39864;SDS011;25538;48.392;9.976;2022-10-26T02:21:08;8.88;;;7.25;;
39864;SDS011;25538;48.392;9.976;2022-10-26T02:23:40;8.80;;;5.82;;
39864;SDS011;25538;48.392;9.976;2022-10-26T02:26:10;10.02;;;5.68;;
39864;SDS011;25538;48.392;9.976;2022-10-26T02:28:43;8.65;;;7.38;;
39864;SDS011;25538;48.392;9.976;2022-10-26T02:31:14;9.32;;;6.78;;
39864;SDS011;25538;48.392;9.976;2022-10-26T02:33:43;7.75;;;6.03;;
39864;SDS011;25538;48.392;9.976;2022-10-26T02:36:15;9.73;;;6.68;;
39864;SDS011;25538;48.392;9.976;2022-10-26T02:38:49;9.30;;;7.47;;
39864;SDS011;25538;48.392;9.976;2022-10-26T02:41:16;11.90;;;7.50;;
39864;SDS011;25538;48.392;9.976;2022-10-26T02:43:46;7.45;;;6.75;;
39864;SDS011;25538;48.392;9.976;2022-10-26T02:46:19;8.63;;;7.72;;
39864;SDS011;25538;48.392;9.976;2022-10-26T02:48:47;11.48;;;7.97;;
39864;SDS011;25538;48.392;9.976;2022-10-26T02:53:45;8.15;;;7.00;;
39864;SDS011;25538;48.392;9.976;2022-10-26T02:56:18;9.05;;;8.15;;
39864;SDS011;25538;48.392;9.976;2022-10-26T02:58:49;9.05;;;7.70;;
39864;SDS011;25538;48.392;9.976;2022-10-26T03:01:18;11.85;;;8.52;;
39864;SDS011;25538;48.392;9.976;2022-10-26T03:03:45;9.27;;;8.38;;
39864;SDS011;25538;48.392;9.976;2022-10-26T03:06:19;12.90;;;8.40;;
39864;SDS011;25538;48.392;9.976;2022-10-26T03:08:48;10.43;;;7.38;;
39864;SDS011;25538;48.392;9.976;2022-10-26T03:11:14;8.57;;;7.35;;
39864;SDS011;25538;48.392;9.976;2022-10-26T03:13:41;10.30;;;8.07;;
39864;SDS011;25538;48.392;9.976;2022-10-26T03:16:07;9.30;;;7.70;;
39864;SDS011;25538;48.392;9.976;2022-10-26T03:18:33;8.97;;;8.10;;
39864;SDS011;25538;48.392;9.976;2022-10-26T03:20:59;10.00;;;7.30;;
39864;SDS011;25538;48.392;9.976;2022-10-26T03:23:25;8.33;;;7.50;;
39864;SDS011;25538;48.392;9.976;2022-10-26T03:25:51;10.13;;;8.30;;
39864;SDS011;25538;48.392;9.976;2022-10-26T03:28:21;8.90;;;7.10;;
39864;SDS011;25538;48.392;9.976;2022-10-26T03:30:47;11.20;;;8.00;;
39864;SDS011;25538;48.392;9.976;2022-10-26T03:33:13;8.77;;;6.70;;
39864;SDS011;25538;48.392;9.976;2022-10-26T03:35:39;7.13;;;6.53;;
39864;SDS011;25538;48.392;9.976;2022-10-26T03:38:05;7.60;;;6.57;;
39864;SDS011;25538;48.392;9.976;2022-10-26T03:40:31;10.73;;;6.80;;
39864;SDS011;25538;48.392;9.976;2022-10-26T03:42:57;10.67;;;6.77;;
39864;SDS011;25538;48.392;9.976;2022-10-26T03:45:23;7.47;;;6.53;;
39864;SDS011;25538;48.392;9.976;2022-10-26T03:47:49;7.33;;;6.63;;
39864;SDS011;25538;48.392;9.976;2022-10-26T03:50:16;8.23;;;6.60;;
39864;SDS011;25538;48.392;9.976;2022-10-26T03:52:45;8.93;;;7.10;;
39864;SDS011;25538;48.392;9.976;2022-10-26T03:55:12;8.93;;;7.80;;
39864;SDS011;25538;48.392;9.976;2022-10-26T03:57:39;9.30;;;8.50;;
39864;SDS011;25538;48.392;9.976;2022-10-26T04:00:10;10.80;;;9.90;;
39864;SDS011;25538;48.392;9.976;2022-10-26T04:02:39;13.45;;;9.25;;
39864;SDS011;25538;48.392;9.976;2022-10-26T04:05:10;9.20;;;8.40;;
39864;SDS011;25538;48.392;9.976;2022-10-26T04:07:36;10.20;;;9.30;;
39864;SDS011;25538;48.392;9.976;2022-10-26T04:10:03;9.80;;;8.80;;
39864;SDS011;25538;48.392;9.976;2022-10-26T04:12:29;9.93;;;9.10;;
39864;SDS011;25538;48.392;9.976;2022-10-26T04:14:55;10.50;;;8.50;;
39864;SDS011;25538;48.392;9.976;2022-10-26T04:17:24;9.15;;;8.35;;
39864;SDS011;25538;48.392;9.976;2022-10-26T04:19:50;8.93;;;8.13;;
39864;SDS011;25538;48.392;9.976;2022-10-26T04:22:16;14.73;;;9.60;;
39864;SDS011;25538;48.392;9.976;2022-10-26T04:24:42;10.10;;;9.17;;
39864;SDS011;25538;48.392;9.976;2022-10-26T04:27:07;10.67;;;9.67;;
39864;SDS011;25538;48.392;9.976;2022-10-26T04:29:33;14.30;;;12.97;;
39864;SDS011;25538;48.392;9.976;2022-10-26T04:31:59;12.80;;;11.70;;
39864;SDS011;25538;48.392;9.976;2022-10-26T04:34:25;13.73;;;12.53;;
39864;SDS011;25538;48.392;9.976;2022-10-26T04:36:51;16.90;;;15.30;;
39864;SDS011;25538;48.392;9.976;2022-10-26T04:39:17;17.83;;;16.10;;
39864;SDS011;25538;48.392;9.976;2022-10-26T04:41:43;19.50;;;17.47;;
39864;SDS011;25538;48.392;9.976;2022-10-26T04:44:11;18.58;;;16.98;;
39864;SDS011;25538;48.392;9.976;2022-10-26T04:46:37;19.50;;;16.87;;
39864;SDS011;25538;48.392;9.976;2022-10-26T04:49:03;18.17;;;16.37;;
39864;SDS011;25538;48.392;9.976;2022-10-26T04:51:29;17.07;;;15.30;;
39864;SDS011;25538;48.392;9.976;2022-10-26T04:53:55;19.03;;;17.20;;
39864;SDS011;25538;48.392;9.976;2022-10-26T04:56:22;19.60;;;17.90;;
39864;SDS011;25538;48.392;9.976;2022-10-26T04:58:48;19.55;;;17.55;;
39864;SDS011;25538;48.392;9.976;2022-10-26T05:01:14;18.57;;;16.67;;
39864;SDS011;25538;48.392;9.976;2022-10-26T05:03:40;19.33;;;17.30;;
39864;SDS011;25538;48.392;9.976;2022-10-26T05:06:06;18.30;;;15.57;;
39864;SDS011;25538;48.392;9.976;2022-10-26T05:08:32;17.83;;;16.23;;
39864;SDS011;25538;48.392;9.976;2022-10-26T05:10:57;15.47;;;14.17;;
39864;SDS011;25538;48.392;9.976;2022-10-26T05:13:23;16.60;;;15.00;;
39864;SDS011;25538;48.392;9.976;2022-10-26T05:15:52;17.08;;;15.48;;
39864;SDS011;25538;48.392;9.976;2022-10-26T05:18:18;16.65;;;14.63;;
39864;SDS011;25538;48.392;9.976;2022-10-26T05:20:44;18.42;;;16.38;;
39864;SDS011;25538;48.392;9.976;2022-10-26T05:23:10;16.43;;;14.90;;
39864;SDS011;25538;48.392;9.976;2022-10-26T05:25:36;15.15;;;13.75;;
39864;SDS011;25538;48.392;9.976;2022-10-26T05:28:04;14.70;;;13.20;;
39864;SDS011;25538;48.392;9.976;2022-10-26T05:30:32;13.65;;;12.45;;
39864;SDS011;25538;48.392;9.976;2022-10-26T05:32:59;12.30;;;11.20;;
39864;SDS011;25538;48.392;9.976;2022-10-26T05:35:29;12.02;;;10.85;;
39864;SDS011;25538;48.392;9.976;2022-10-26T05:37:55;13.85;;;12.65;;
39864;SDS011;25538;48.392;9.976;2022-10-26T05:40:22;15.93;;;11.55;;
39864;SDS011;25538;48.392;9.976;2022-10-26T05:42:48;18.33;;;10.77;;
39864;SDS011;25538;48.392;9.976;2022-10-26T05:45:15;10.85;;;9.85;;
39864;SDS011;25538;48.392;9.976;2022-10-26T05:47:44;12.15;;;10.93;;
39864;SDS011;25538;48.392;9.976;2022-10-26T05:50:11;11.88;;;10.70;;
39864;SDS011;25538;48.392;9.976;2022-10-26T05:52:41;10.20;;;9.25;;
39864;SDS011;25538;48.392;9.976;2022-10-26T05:55:09;11.52;;;10.50;;
39864;SDS011;25538;48.392;9.976;2022-10-26T05:57:36;11.07;;;10.05;;
39864;SDS011;25538;48.392;9.976;2022-10-26T06:00:06;12.35;;;10.40;;
39864;SDS011;25538;48.392;9.976;2022-10-26T06:05:07;10.85;;;9.82;;
39864;SDS011;25538;48.392;9.976;2022-10-26T06:07:35;11.45;;;10.40;;
39864;SDS011;25538;48.392;9.976;2022-10-26T06:10:02;11.18;;;10.15;;
39864;SDS011;25538;48.392;9.976;2022-10-26T06:12:28;9.82;;;8.90;;
39864;SDS011;25538;48.392;9.976;2022-10-26T06:14:55;11.25;;;10.15;;
39864;SDS011;25538;48.392;9.976;2022-10-26T06:31:26;10.60;;;9.60;;
39864;SDS011;25538;48.392;9.976;2022-10-26T06:33:54;10.88;;;9.82;;
39864;SDS011;25538;48.392;9.976;2022-10-26T06:36:24;10.40;;;9.45;;
39864;SDS011;25538;48.392;9.976;2022-10-26T06:38:57;12.40;;;10.20;;
39864;SDS011;25538;48.392;9.976;2022-10-26T06:41:29;9.63;;;8.52;;
39864;SDS011;25538;48.392;9.976;2022-10-26T06:43:56;8.52;;;7.93;;
39864;SDS011;25538;48.392;9.976;2022-10-26T06:46:37;8.65;;;8.00;;
39864;SDS011;25538;48.392;9.976;2022-10-26T06:52:15;8.38;;;7.68;;
39864;SDS011;25538;48.392;9.976;2022-10-26T06:54:46;11.18;;;8.95;;
39864;SDS011;25538;48.392;9.976;2022-10-26T06:57:16;8.93;;;8.20;;
39864;SDS011;25538;48.392;9.976;2022-10-26T06:59:50;8.77;;;7.88;;
39864;SDS011;25538;48.392;9.976;2022-10-26T07:02:22;9.35;;;8.02;;
39864;SDS011;25538;48.392;9.976;2022-10-26T07:04:48;7.53;;;6.93;;
39864;SDS011;25538;48.392;9.976;2022-10-26T07:07:14;8.93;;;7.53;;
39864;SDS011;25538;48.392;9.976;2022-10-26T07:09:44;7.38;;;6.68;;
39864;SDS011;25538;48.392;9.976;2022-10-26T07:12:10;7.63;;;6.82;;
39864;SDS011;25538;48.392;9.976;2022-10-26T07:14:36;7.03;;;6.32;;
39864;SDS011;25538;48.392;9.976;2022-10-26T07:17:02;7.17;;;6.57;;
39864;SDS011;25538;48.392;9.976;2022-10-26T07:19:28;6.95;;;6.35;;
39864;SDS011;25538;48.392;9.976;2022-10-26T07:21:54;9.45;;;6.20;;
39864;SDS011;25538;48.392;9.976;2022-10-26T07:24:21;7.90;;;5.68;;
39864;SDS011;25538;48.392;9.976;2022-10-26T07:26:48;8.60;;;6.20;;
39864;SDS011;25538;48.392;9.976;2022-10-26T07:29:14;7.53;;;6.80;;
39864;SDS011;25538;48.392;9.976;2022-10-26T07:31:43;7.60;;;6.95;;
39864;SDS011;25538;48.392;9.976;2022-10-26T07:34:09;9.75;;;6.40;;
39864;SDS011;25538;48.392;9.976;2022-10-26T07:36:34;7.50;;;5.00;;
39864;SDS011;25538;48.392;9.976;2022-10-26T07:39:04;6.43;;;5.93;;
39864;SDS011;25538;48.392;9.976;2022-10-26T07:41:31;6.45;;;5.93;;
39864;SDS011;25538;48.392;9.976;2022-10-26T07:43:57;8.45;;;7.03;;
39864;SDS011;25538;48.392;9.976;2022-10-26T07:46:23;7.25;;;6.20;;
39864;SDS011;25538;48.392;9.976;2022-10-26T07:48:49;6.75;;;6.20;;
39864;SDS011;25538;48.392;9.976;2022-10-26T07:51:15;6.10;;;5.70;;
39864;SDS011;25538;48.392;9.976;2022-10-26T07:53:41;8.80;;;5.60;;
39864;SDS011;25538;48.392;9.976;2022-10-26T07:56:08;11.30;;;6.50;;
39864;SDS011;25538;48.392;9.976;2022-10-26T07:58:34;6.82;;;5.72;;
39864;SDS011;25538;48.392;9.976;2022-10-26T08:01:05;6.90;;;6.30;;
39864;SDS011;25538;48.392;9.976;2022-10-26T08:03:35;6.18;;;5.72;;
39864;SDS011;25538;48.392;9.976;2022-10-26T08:06:01;6.05;;;5.43;;
39864;SDS011;25538;48.392;9.976;2022-10-26T08:08:29;6.03;;;5.55;;
39864;SDS011;25538;48.392;9.976;2022-10-26T08:10:56;6.47;;;5.93;;
39864;SDS011;25538;48.392;9.976;2022-10-26T08:13:22;6.32;;;5.82;;
39864;SDS011;25538;48.392;9.976;2022-10-26T08:15:48;7.67;;;5.43;;
39864;SDS011;25538;48.392;9.976;2022-10-26T08:18:14;6.90;;;5.90;;
39864;SDS011;25538;48.392;9.976;2022-10-26T08:20:40;6.00;;;5.43;;
39864;SDS011;25538;48.392;9.976;2022-10-26T08:23:06;6.60;;;4.50;;
39864;SDS011;25538;48.392;9.976;2022-10-26T08:25:32;4.57;;;4.17;;
39864;SDS011;25538;48.392;9.976;2022-10-26T08:27:59;5.10;;;4.63;;
39864;SDS011;25538;48.392;9.976;2022-10-26T08:30:29;5.50;;;4.30;;
39864;SDS011;25538;48.392;9.976;2022-10-26T08:32:59;4.13;;;3.80;;
39864;SDS011;25538;48.392;9.976;2022-10-26T08:35:26;5.55;;;4.13;;
39864;SDS011;25538;48.392;9.976;2022-10-26T08:37:53;3.90;;;3.60;;
39864;SDS011;25538;48.392;9.976;2022-10-26T08:40:26;4.23;;;3.93;;
39864;SDS011;25538;48.392;9.976;2022-10-26T08:43:04;4.73;;;4.33;;
39864;SDS011;25538;48.392;9.976;2022-10-26T08:45:56;7.13;;;4.03;;
39864;SDS011;25538;48.392;9.976;2022-10-26T08:48:28;4.80;;;4.37;;
39864;SDS011;25538;48.392;9.976;2022-10-26T08:51:07;4.53;;;4.13;;
39864;SDS011;25538;48.392;9.976;2022-10-26T08:56:20;4.80;;;4.33;;
39864;SDS011;25538;48.392;9.976;2022-10-26T09:01:25;6.40;;;4.83;;
39864;SDS011;25538;48.392;9.976;2022-10-26T09:03:55;5.50;;;5.00;;
39864;SDS011;25538;48.392;9.976;2022-10-26T09:17:44;7.63;;;5.57;;
39864;SDS011;25538;48.392;9.976;2022-10-26T09:26:03;6.13;;;5.60;;
39864;SDS011;25538;48.392;9.976;2022-10-26T09:28:36;6.22;;;5.40;;
39864;SDS011;25538;48.392;9.976;2022-10-26T09:31:05;6.40;;;5.43;;
39864;SDS011;25538;48.392;9.976;2022-10-26T09:33:33;5.53;;;5.00;;
39864;SDS011;25538;48.392;9.976;2022-10-26T09:36:07;8.45;;;6.03;;
39864;SDS011;25538;48.392;9.976;2022-10-26T09:38:57;8.20;;;6.40;;
39864;SDS011;25538;48.392;9.976;2022-10-26T09:41:46;6.13;;;5.20;;
39864;SDS011;25538;48.392;9.976;2022-10-26T09:46:57;6.93;;;5.53;;
39864;SDS011;25538;48.392;9.976;2022-10-26T09:49:32;6.00;;;5.13;;
39864;SDS011;25538;48.392;9.976;2022-10-26T09:52:15;7.10;;;6.03;;
39864;SDS011;25538;48.392;9.976;2022-10-26T09:54:41;6.07;;;5.10;;
39864;SDS011;25538;48.392;9.976;2022-10-26T09:57:07;7.07;;;5.73;;
39864;SDS011;25538;48.392;9.976;2022-10-26T09:59:38;5.60;;;5.10;;
39864;SDS011;25538;48.392;9.976;2022-10-26T10:02:48;7.27;;;5.40;;
39864;SDS011;25538;48.392;9.976;2022-10-26T10:04:57;5.93;;;5.43;;
39864;SDS011;25538;48.392;9.976;2022-10-26T10:07:23;5.30;;;4.90;;
39864;SDS011;25538;48.392;9.976;2022-10-26T10:10:08;7.63;;;6.30;;
39864;SDS011;25538;48.392;9.976;2022-10-26T10:12:47;6.70;;;5.60;;
39864;SDS011;25538;48.392;9.976;2022-10-26T10:15:20;5.87;;;5.40;;
39864;SDS011;25538;48.392;9.976;2022-10-26T10:17:49;6.03;;;5.63;;
39864;SDS011;25538;48.392;9.976;2022-10-26T10:20:17;6.87;;;5.33;;
39864;SDS011;25538;48.392;9.976;2022-10-26T10:22:54;5.93;;;5.43;;
39864;SDS011;25538;48.392;9.976;2022-10-26T10:27:59;6.43;;;5.27;;
39864;SDS011;25538;48.392;9.976;2022-10-26T10:30:30;5.67;;;5.00;;
39864;SDS011;25538;48.392;9.976;2022-10-26T10:33:09;7.00;;;4.67;;
39864;SDS011;25538;48.392;9.976;2022-10-26T10:35:37;6.40;;;4.97;;
39864;SDS011;25538;48.392;9.976;2022-10-26T10:38:15;6.33;;;5.30;;
39864;SDS011;25538;48.392;9.976;2022-10-26T10:40:54;5.40;;;4.60;;
39864;SDS011;25538;48.392;9.976;2022-10-26T10:43:22;10.60;;;5.30;;
39864;SDS011;25538;48.392;9.976;2022-10-26T10:45:50;8.60;;;5.17;;
39864;SDS011;25538;48.392;9.976;2022-10-26T10:48:21;5.77;;;5.17;;
39864;SDS011;25538;48.392;9.976;2022-10-26T10:51:02;5.10;;;4.67;;
39864;SDS011;25538;48.392;9.976;2022-10-26T10:53:49;7.23;;;5.53;;
39864;SDS011;25538;48.392;9.976;2022-10-26T11:01:43;8.60;;;4.93;;
39864;SDS011;25538;48.392;9.976;2022-10-26T11:07:14;5.87;;;5.40;;
39864;SDS011;25538;48.392;9.976;2022-10-26T11:09:42;5.10;;;4.60;;
39864;SDS011;25538;48.392;9.976;2022-10-26T11:12:13;6.13;;;4.00;;
39864;SDS011;25538;48.392;9.976;2022-10-26T11:14:49;5.53;;;4.40;;
39864;SDS011;25538;48.392;9.976;2022-10-26T11:17:21;7.47;;;4.10;;
39864;SDS011;25538;48.392;9.976;2022-10-26T11:19:57;5.77;;;4.70;;
39864;SDS011;25538;48.392;9.976;2022-10-26T11:22:37;7.47;;;4.60;;
39864;SDS011;25538;48.392;9.976;2022-10-26T11:25:11;7.87;;;4.73;;
39864;SDS011;25538;48.392;9.976;2022-10-26T11:27:48;4.53;;;4.13;;
39864;SDS011;25538;48.392;9.976;2022-10-26T11:30:19;6.10;;;4.70;;
39864;SDS011;25538;48.392;9.976;2022-10-26T11:33:03;6.70;;;4.57;;
39864;SDS011;25538;48.392;9.976;2022-10-26T11:35:41;6.17;;;4.30;;
39864;SDS011;25538;48.392;9.976;2022-10-26T11:41:28;7.40;;;3.57;;
39864;SDS011;25538;48.392;9.976;2022-10-26T11:44:14;5.73;;;3.43;;
39864;SDS011;25538;48.392;9.976;2022-10-26T11:46:55;6.90;;;4.17;;
39864;SDS011;25538;48.392;9.976;2022-10-26T11:49:32;3.30;;;3.10;;
39864;SDS011;25538;48.392;9.976;2022-10-26T11:54:54;6.30;;;3.90;;
39864;SDS011;25538;48.392;9.976;2022-10-26T11:57:24;4.10;;;3.13;;
39864;SDS011;25538;48.392;9.976;2022-10-26T11:59:54;4.30;;;3.73;;
39864;SDS011;25538;48.392;9.976;2022-10-26T12:02:35;5.40;;;3.80;;
39864;SDS011;25538;48.392;9.976;2022-10-26T12:05:07;4.63;;;3.87;;
39864;SDS011;25538;48.392;9.976;2022-10-26T12:07:52;5.77;;;3.73;;
39864;SDS011;25538;48.392;9.976;2022-10-26T12:10:26;6.97;;;3.40;;
39864;SDS011;25538;48.392;9.976;2022-10-26T12:13:44;5.60;;;3.97;;
39864;SDS011;25538;48.392;9.976;2022-10-26T12:16:04;7.77;;;3.83;;
39864;SDS011;25538;48.392;9.976;2022-10-26T12:21:15;5.10;;;3.57;;
39864;SDS011;25538;48.392;9.976;2022-10-26T12:24:22;3.77;;;3.47;;
39864;SDS011;25538;48.392;9.976;2022-10-26T12:29:36;6.10;;;3.83;;
39864;SDS011;25538;48.392;9.976;2022-10-26T12:32:47;6.60;;;3.40;;
39864;SDS011;25538;48.392;9.976;2022-10-26T12:38:01;6.40;;;4.07;;
39864;SDS011;25538;48.392;9.976;2022-10-26T12:59:37;3.90;;;3.57;;
39864;SDS011;25538;48.392;9.976;2022-10-26T13:07:49;4.23;;;3.23;;
39864;SDS011;25538;48.392;9.976;2022-10-26T13:20:31;3.40;;;2.43;;
39864;SDS011;25538;48.392;9.976;2022-10-26T13:23:00;4.70;;;2.63;;
39864;SDS011;25538;48.392;9.976;2022-10-26T13:25:28;5.00;;;2.80;;
39864;SDS011;25538;48.392;9.976;2022-10-26T13:27:57;6.20;;;2.70;;
39864;SDS011;25538;48.392;9.976;2022-10-26T13:32:58;4.60;;;3.60;;
39864;SDS011;25538;48.392;9.976;2022-10-26T13:35:26;7.00;;;3.60;;
39864;SDS011;25538;48.392;9.976;2022-10-26T13:37:54;4.13;;;3.63;;
39864;SDS011;25538;48.392;9.976;2022-10-26T13:40:25;5.17;;;3.77;;
39864;SDS011;25538;48.392;9.976;2022-10-26T13:42:54;6.50;;;3.30;;
39864;SDS011;25538;48.392;9.976;2022-10-26T13:45:24;5.13;;;2.83;;
39864;SDS011;25538;48.392;9.976;2022-10-26T13:50:30;6.53;;;3.30;;
39864;SDS011;25538;48.392;9.976;2022-10-26T13:53:05;5.17;;;3.33;;
39864;SDS011;25538;48.392;9.976;2022-10-26T13:55:48;5.50;;;4.00;;
39864;SDS011;25538;48.392;9.976;2022-10-26T13:58:36;5.43;;;3.40;;
39864;SDS011;25538;48.392;9.976;2022-10-26T14:03:38;6.30;;;2.60;;
39864;SDS011;25538;48.392;9.976;2022-10-26T14:08:52;4.60;;;4.07;;
39864;SDS011;25538;48.392;9.976;2022-10-26T14:11:23;5.80;;;3.10;;
39864;SDS011;25538;48.392;9.976;2022-10-26T14:13:58;6.90;;;3.03;;
39864;SDS011;25538;48.392;9.976;2022-10-26T14:16:26;3.70;;;2.80;;
39864;SDS011;25538;48.392;9.976;2022-10-26T14:18:54;6.20;;;3.10;;
39864;SDS011;25538;48.392;9.976;2022-10-26T14:21:20;6.10;;;3.90;;
39864;SDS011;25538;48.392;9.976;2022-10-26T14:23:48;5.80;;;2.90;;
39864;SDS011;25538;48.392;9.976;2022-10-26T14:26:26;7.57;;;3.57;;
39864;SDS011;25538;48.392;9.976;2022-10-26T14:28:54;8.00;;;3.83;;
39864;SDS011;25538;48.392;9.976;2022-10-26T14:31:28;6.30;;;3.60;;
39864;SDS011;25538;48.392;9.976;2022-10-26T14:33:56;7.13;;;3.50;;
39864;SDS011;25538;48.392;9.976;2022-10-26T14:37:06;4.80;;;2.90;;
39864;SDS011;25538;48.392;9.976;2022-10-26T14:39:27;7.67;;;3.50;;
39864;SDS011;25538;48.392;9.976;2022-10-26T14:42:12;5.73;;;3.40;;
39864;SDS011;25538;48.392;9.976;2022-10-26T14:44:55;4.67;;;3.30;;
39864;SDS011;25538;48.392;9.976;2022-10-26T14:47:26;3.77;;;3.03;;
39864;SDS011;25538;48.392;9.976;2022-10-26T14:49:52;5.90;;;3.37;;
39864;SDS011;25538;48.392;9.976;2022-10-26T14:52:21;6.30;;;3.47;;
39864;SDS011;25538;48.392;9.976;2022-10-26T14:55:02;4.00;;;3.17;;
39864;SDS011;25538;48.392;9.976;2022-10-26T14:57:35;4.60;;;3.20;;
39864;SDS011;25538;48.392;9.976;2022-10-26T15:02:44;9.83;;;3.73;;
39864;SDS011;25538;48.392;9.976;2022-10-26T15:07:43;8.53;;;3.50;;
39864;SDS011;25538;48.392;9.976;2022-10-26T15:13:46;7.07;;;3.90;;
39864;SDS011;25538;48.392;9.976;2022-10-26T15:18:44;6.70;;;3.67;;
39864;SDS011;25538;48.392;9.976;2022-10-26T15:21:20;8.20;;;3.70;;
39864;SDS011;25538;48.392;9.976;2022-10-26T15:23:49;7.40;;;4.13;;
39864;SDS011;25538;48.392;9.976;2022-10-26T15:26:15;3.83;;;3.53;;
39864;SDS011;25538;48.392;9.976;2022-10-26T15:28:41;4.93;;;3.70;;
39864;SDS011;25538;48.392;9.976;2022-10-26T15:38:33;6.00;;;4.37;;
39864;SDS011;25538;48.392;9.976;2022-10-26T15:40:59;5.93;;;4.30;;
39864;SDS011;25538;48.392;9.976;2022-10-26T15:43:25;6.40;;;4.77;;
39864;SDS011;25538;48.392;9.976;2022-10-26T15:45:51;9.87;;;5.17;;
39864;SDS011;25538;48.392;9.976;2022-10-26T15:48:25;4.30;;;4.00;;
39864;SDS011;25538;48.392;9.976;2022-10-26T15:50:53;7.00;;;4.40;;
39864;SDS011;25538;48.392;9.976;2022-10-26T15:53:21;16.63;;;4.83;;
39864;SDS011;25538;48.392;9.976;2022-10-26T15:55:52;12.17;;;5.20;;
39864;SDS011;25538;48.392;9.976;2022-10-26T15:58:19;6.73;;;4.00;;
39864;SDS011;25538;48.392;9.976;2022-10-26T16:00:45;5.80;;;5.20;;
39864;SDS011;25538;48.392;9.976;2022-10-26T16:03:16;7.50;;;4.43;;
39864;SDS011;25538;48.392;9.976;2022-10-26T16:06:00;10.83;;;5.40;;
39864;SDS011;25538;48.392;9.976;2022-10-26T16:08:28;9.10;;;4.47;;
39864;SDS011;25538;48.392;9.976;2022-10-26T16:10:55;5.63;;;5.00;;
39864;SDS011;25538;48.392;9.976;2022-10-26T16:13:22;7.57;;;5.00;;
39864;SDS011;25538;48.392;9.976;2022-10-26T16:15:47;8.73;;;4.67;;
39864;SDS011;25538;48.392;9.976;2022-10-26T16:18:13;6.63;;;4.63;;
39864;SDS011;25538;48.392;9.976;2022-10-26T16:20:40;9.50;;;5.50;;
39864;SDS011;25538;48.392;9.976;2022-10-26T16:23:08;7.60;;;4.90;;
39864;SDS011;25538;48.392;9.976;2022-10-26T16:25:39;9.13;;;5.57;;
39864;SDS011;25538;48.392;9.976;2022-10-26T16:28:10;8.73;;;6.00;;
39864;SDS011;25538;48.392;9.976;2022-10-26T16:30:38;9.30;;;5.97;;
39864;SDS011;25538;48.392;9.976;2022-10-26T16:33:04;9.47;;;5.87;;
39864;SDS011;25538;48.392;9.976;2022-10-26T16:35:30;13.83;;;7.60;;
39864;SDS011;25538;48.392;9.976;2022-10-26T16:37:56;14.30;;;7.30;;
39864;SDS011;25538;48.392;9.976;2022-10-26T16:40:22;11.77;;;7.60;;
39864;SDS011;25538;48.392;9.976;2022-10-26T16:42:48;9.83;;;8.83;;
39864;SDS011;25538;48.392;9.976;2022-10-26T16:45:14;12.30;;;8.57;;
39864;SDS011;25538;48.392;9.976;2022-10-26T16:47:40;11.60;;;8.63;;
39864;SDS011;25538;48.392;9.976;2022-10-26T16:50:06;12.37;;;8.27;;
39864;SDS011;25538;48.392;9.976;2022-10-26T16:52:34;11.93;;;8.20;;
39864;SDS011;25538;48.392;9.976;2022-10-26T16:55:01;11.93;;;8.20;;
39864;SDS011;25538;48.392;9.976;2022-10-26T16:57:28;9.87;;;8.93;;
39864;SDS011;25538;48.392;9.976;2022-10-26T16:59:54;13.13;;;7.63;;
39864;SDS011;25538;48.392;9.976;2022-10-26T17:02:20;13.87;;;8.03;;
39864;SDS011;25538;48.392;9.976;2022-10-26T17:04:46;11.60;;;8.20;;
39864;SDS011;25538;48.392;9.976;2022-10-26T17:07:12;11.50;;;8.70;;
39864;SDS011;25538;48.392;9.976;2022-10-26T17:09:38;10.17;;;9.07;;
39864;SDS011;25538;48.392;9.976;2022-10-26T17:12:04;12.83;;;11.53;;
39864;SDS011;25538;48.392;9.976;2022-10-26T17:14:30;13.37;;;11.07;;
39864;SDS011;25538;48.392;9.976;2022-10-26T17:16:57;16.20;;;10.57;;
39864;SDS011;25538;48.392;9.976;2022-10-26T17:19:23;12.10;;;10.10;;
39864;SDS011;25538;48.392;9.976;2022-10-26T17:21:49;12.83;;;11.43;;
39864;SDS011;25538;48.392;9.976;2022-10-26T17:24:15;12.30;;;9.57;;
39864;SDS011;25538;48.392;9.976;2022-10-26T17:26:41;14.03;;;11.87;;
39864;SDS011;25538;48.392;9.976;2022-10-26T17:29:08;15.37;;;11.43;;
39864;SDS011;25538;48.392;9.976;2022-10-26T17:31:36;12.50;;;10.80;;
39864;SDS011;25538;48.392;9.976;2022-10-26T17:34:02;14.15;;;12.73;;
39864;SDS011;25538;48.392;9.976;2022-10-26T17:36:28;10.80;;;9.90;;
39864;SDS011;25538;48.392;9.976;2022-10-26T17:38:55;12.40;;;10.57;;
39864;SDS011;25538;48.392;9.976;2022-10-26T17:41:21;12.87;;;11.50;;
39864;SDS011;25538;48.392;9.976;2022-10-26T17:43:48;11.83;;;10.63;;
39864;SDS011;25538;48.392;9.976;2022-10-26T17:46:15;14.00;;;11.90;;
39864;SDS011;25538;48.392;9.976;2022-10-26T17:48:42;13.70;;;12.00;;
39864;SDS011;25538;48.392;9.976;2022-10-26T17:51:09;14.10;;;11.70;;